Time;durP1;ratioP1;P1;durP2;ratioP2;P2;SDS_P1;SDS_P2;PMS_P1;PMS_P2;Temp;Humidity;BMP_temperature;BMP_pressure;BME280_temperature;BME280_humidity;BME280_pressure;Samples;Min_cycle;Max_cycle;Signal;HPM_P1;HPM_P2
2020/12/11 00:00:55;;;;;;;36.20;15.90;;;5.40;84.70;;;4.52;68.56;93842.41;5030976;28;20192;-81
2020/12/11 00:03:24;;;;;;;35.83;15.35;;;5.40;84.70;;;4.53;68.94;93841.44;5047191;28;20283;-80
2020/12/11 00:05:51;;;;;;;37.72;15.60;;;5.40;84.60;;;4.54;68.80;93832.66;5034577;28;20731;-81
2020/12/11 00:08:19;;;;;;;51.42;16.25;;;5.30;84.60;;;4.54;68.64;93845.63;5018532;28;20689;-81
2020/12/11 00:10:46;;;;;;;34.85;15.88;;;5.30;84.50;;;4.51;68.69;93840.81;5018006;28;20660;-80
2020/12/11 00:13:14;;;;;;;32.25;15.52;;;5.40;84.60;;;4.54;68.61;93846.47;5018385;28;20308;-80
2020/12/11 00:15:41;;;;;;;41.95;16.83;;;5.40;84.60;;;4.53;68.68;93841.44;5034669;28;20725;-81
2020/12/11 00:18:07;;;;;;;39.17;15.88;;;5.40;84.60;;;4.49;68.80;93844.41;5018273;28;20209;-81
2020/12/11 00:20:35;;;;;;;38.33;16.05;;;5.40;84.60;;;4.55;68.67;93849.84;5038617;28;20757;-81
2020/12/11 00:23:04;;;;;;;36.63;16.83;;;5.40;84.60;;;4.53;68.65;93849.22;5054395;28;20203;-80
2020/12/11 00:25:31;;;;;;;49.28;18.30;;;5.50;84.50;;;4.53;68.51;93844.03;5053900;28;20239;-80
2020/12/11 00:27:58;;;;;;;49.85;18.05;;;5.40;85.20;;;4.49;68.47;93849.59;5038006;28;20203;-81
2020/12/11 00:30:25;;;;;;;45.83;17.75;;;5.30;84.40;;;4.49;68.24;93840.97;5055371;28;20215;-81
2020/12/11 00:32:52;;;;;;;37.20;17.20;;;5.30;84.30;;;4.47;68.67;93846.34;5037825;28;20560;-78
2020/12/11 00:35:19;;;;;;;39.95;17.23;;;5.30;84.30;;;4.45;68.33;93845.72;5037755;28;20285;-79
2020/12/11 00:37:46;;;;;;;40.40;17.95;;;5.40;84.40;;;4.41;68.26;93839.28;5037755;28;20692;-78
2020/12/11 00:40:13;;;;;;;39.58;17.50;;;5.30;84.20;;;4.41;68.15;93846.28;5054057;28;20690;-79
2020/12/11 00:42:39;;;;;;;88.05;21.63;;;5.30;84.20;;;4.37;68.54;93832.03;5037680;28;20223;-78
2020/12/11 00:45:06;;;;;;;66.15;24.27;;;5.30;84.20;;;4.35;68.52;93839.22;5055596;28;20251;-82
2020/12/11 00:47:34;;;;;;;80.72;25.13;;;5.30;84.10;;;4.23;68.13;93836.25;5037626;28;20645;-81
2020/12/11 00:50:00;;;;;;;78.80;23.73;;;5.20;84.00;;;4.24;68.25;93845.66;5021262;28;20214;-81
2020/12/11 00:52:28;;;;;;;41.53;20.45;;;5.20;83.90;;;4.25;68.17;93845.47;5021355;28;20228;-82
2020/12/11 00:54:55;;;;;;;57.08;20.48;;;5.20;84.00;;;4.19;68.25;93846.19;5033816;28;20709;-81
2020/12/11 00:57:21;;;;;;;57.35;18.60;;;5.20;84.00;;;4.21;67.97;93861.59;5017724;28;20188;-82
2020/12/11 00:59:48;;;;;;;56.10;18.20;;;5.10;84.00;;;4.18;68.42;93848.97;5034164;28;20728;-82
2020/12/11 01:02:15;;;;;;;50.08;18.45;;;5.10;84.00;;;4.15;68.44;93839.75;5017615;28;20622;-81
2020/12/11 01:04:43;;;;;;;47.50;17.05;;;5.10;84.10;;;4.18;68.61;93848.97;5017367;28;20227;-82
2020/12/11 01:07:09;;;;;;;56.25;18.40;;;5.10;84.20;;;4.16;68.43;93847.38;5033974;28;20201;-82
2020/12/11 01:09:36;;;;;;;57.95;18.42;;;5.10;84.30;;;4.17;68.50;93848.16;5033687;28;20217;-81
2020/12/11 01:12:03;;;;;;;52.95;18.65;;;5.00;84.10;;;4.10;68.39;93842.88;5033838;28;20220;-79
2020/12/11 01:14:29;;;;;;;54.33;19.17;;;5.10;84.30;;;4.09;68.43;93835.25;5033424;28;20621;-81
2020/12/11 01:16:56;;;;;;;47.30;18.45;;;5.00;84.10;;;4.11;68.24;93838.50;5021006;28;20257;-81
2020/12/11 01:19:23;;;;;;;47.67;18.52;;;5.00;84.10;;;4.06;68.30;93836.44;5037046;28;20811;-83
2020/12/11 01:21:50;;;;;;;60.15;19.05;;;5.00;84.10;;;4.10;68.33;93836.88;5036906;28;20658;-81
2020/12/11 01:24:17;;;;;;;45.58;18.23;;;5.00;84.10;;;4.07;67.84;93834.66;5052975;28;20319;-80
2020/12/11 01:26:45;;;;;;;50.75;17.20;;;5.00;84.20;;;4.08;68.26;93834.47;5036419;28;20253;-82
2020/12/11 01:29:12;;;;;;;45.97;17.98;;;4.90;84.10;;;4.09;68.18;93843.03;5053430;28;20216;-81
2020/12/11 01:31:40;;;;;;;56.50;17.95;;;4.90;84.10;;;4.06;68.52;93844.22;5037383;28;20244;-82
2020/12/11 01:34:06;;;;;;;70.65;18.73;;;5.00;84.30;;;4.07;68.37;93838.03;5069855;28;20204;-82
2020/12/11 01:36:33;;;;;;;90.80;20.70;;;4.90;84.20;;;4.00;68.26;93829.34;5036423;28;20220;-82
2020/12/11 01:39:00;;;;;;;87.03;19.65;;;4.90;84.10;;;4.03;68.43;93839.41;5036683;28;20277;-81
2020/12/11 01:41:33;;;;;;;48.53;18.10;;;4.90;84.10;;;4.03;68.74;93834.22;5019952;28;20254;-82
2020/12/11 01:44:13;;;;;;;57.38;19.20;;;4.90;84.10;;;4.01;68.03;93833.56;5036594;28;20682;-82
2020/12/11 01:46:41;;;;;;;48.05;18.02;;;4.90;84.20;;;3.93;68.23;93826.69;5036605;28;20611;-81
2020/12/11 01:49:12;;;;;;;51.97;18.70;;;4.90;84.90;;;3.95;68.26;93822.09;5036343;28;20266;-81
2020/12/11 01:51:39;;;;;;;64.60;20.77;;;4.90;84.10;;;3.92;68.13;93824.25;5035882;28;20232;-82
2020/12/11 01:54:06;;;;;;;68.80;21.48;;;4.90;83.90;;;3.88;68.01;93823.00;5036290;28;20242;-81
2020/12/11 01:57:00;;;;;;;60.60;21.08;;;4.80;83.80;;;3.86;67.71;93828.38;5052684;28;20218;-81
2020/12/11 01:59:40;;;;;;;58.38;19.52;;;4.80;83.80;;;3.81;68.13;93823.72;5034131;28;20212;-81
2020/12/11 02:02:12;;;;;;;47.72;19.13;;;4.80;83.90;;;3.81;68.20;93825.50;5054420;28;20200;-81
2020/12/11 02:04:40;;;;;;;50.90;19.00;;;4.70;83.90;;;3.78;68.44;93818.88;5067718;28;20705;-81
2020/12/11 02:07:07;;;;;;;63.40;19.25;;;4.70;84.00;;;3.79;68.51;93820.47;5017452;28;20553;-82
2020/12/11 02:09:35;;;;;;;62.63;19.52;;;4.70;84.00;;;3.79;68.51;93822.28;5048931;28;20236;-81
2020/12/11 02:12:03;;;;;;;60.72;19.45;;;4.70;84.10;;;3.78;68.37;93820.66;5018859;28;20220;-81
2020/12/11 02:14:31;;;;;;;72.65;20.13;;;4.70;84.00;;;3.78;68.45;93820.66;5053120;28;20307;-82
2020/12/11 02:17:04;;;;;;;61.55;20.70;;;4.60;84.80;;;3.77;68.18;93816.44;5029959;28;20236;-80
2020/12/11 02:19:33;;;;;;;48.97;19.63;;;4.70;84.20;;;3.75;67.98;93810.63;5048528;28;20615;-81
2020/12/11 02:22:05;;;;;;;79.40;21.00;;;4.60;84.10;;;3.74;68.27;93804.66;5017483;28;20279;-81
2020/12/11 02:24:34;;;;;;;74.43;21.88;;;4.60;84.10;;;3.73;68.07;93818.59;5039426;28;20226;-80
2020/12/11 02:27:03;;;;;;;75.63;21.52;;;4.70;84.00;;;3.70;68.03;93803.41;5033227;28;20284;-80
2020/12/11 02:29:30;;;;;;;61.90;20.77;;;4.60;83.90;;;3.68;67.89;93811.34;5047229;28;20263;-82
2020/12/11 02:31:57;;;;;;;53.08;20.40;;;4.60;83.90;;;3.65;68.19;93816.91;5035133;28;20746;-82
2020/12/11 02:34:25;;;;;;;60.88;21.50;;;4.60;83.90;;;3.63;68.23;93823.25;5034436;28;20220;-79
2020/12/11 02:36:52;;;;;;;79.35;21.60;;;4.50;83.80;;;3.61;68.09;93820.81;5055526;28;20283;-80
2020/12/11 02:39:19;;;;;;;66.32;22.65;;;4.60;83.90;;;3.58;68.32;93821.16;5050589;28;20222;-80
2020/12/11 02:41:48;;;;;;;68.32;20.90;;;4.50;83.80;;;3.55;68.18;93818.91;5034916;28;20212;-81
2020/12/11 02:44:15;;;;;;;64.30;21.85;;;4.60;84.00;;;3.55;67.97;93816.31;5053200;28;20281;-81
2020/12/11 02:46:43;;;;;;;67.30;22.55;;;4.50;83.90;;;3.54;68.51;93812.13;5034861;28;20188;-81
2020/12/11 02:49:10;;;;;;;77.35;21.42;;;4.50;84.00;;;3.52;68.31;93809.69;5052600;28;20229;-80
2020/12/11 02:51:37;;;;;;;71.63;21.60;;;4.50;84.00;;;3.54;68.35;93814.72;5034060;28;20489;-81
2020/12/11 02:54:04;;;;;;;74.30;22.52;;;4.40;84.00;;;3.53;68.19;93810.53;5066276;28;20211;-82
2020/12/11 02:56:31;;;;;;;69.45;21.38;;;4.40;84.10;;;3.54;68.30;93812.13;5046347;28;20600;-81
2020/12/11 02:58:58;;;;;;;88.30;21.48;;;4.40;84.20;;;3.54;68.41;93817.31;5037288;28;20208;-80
2020/12/11 03:01:27;;;;;;;71.22;22.70;;;4.40;84.30;;;3.56;68.44;93815.34;5051083;28;20629;-82
2020/12/11 03:03:58;;;;;;;73.93;21.48;;;4.40;84.30;;;3.54;68.35;93812.13;5050841;28;20208;-80
2020/12/11 03:06:30;;;;;;;85.90;22.75;;;4.40;84.30;;;3.52;68.29;93798.53;5067450;28;20190;-80
2020/12/11 03:08:59;;;;;;;95.00;22.00;;;4.40;84.20;;;3.58;68.50;93805.63;5030123;28;20563;-81
2020/12/11 03:11:26;;;;;;;95.65;22.85;;;4.50;84.40;;;3.59;68.43;93812.41;5036663;28;20318;-80
2020/12/11 03:13:53;;;;;;;91.55;22.95;;;4.40;84.30;;;3.57;68.10;93804.00;5033235;28;20714;-81
2020/12/11 03:16:21;;;;;;;112.05;24.45;;;4.40;84.20;;;3.59;68.32;93806.41;5034691;28;20203;-82
2020/12/11 03:18:48;;;;;;;74.85;23.75;;;4.50;84.20;;;3.57;68.36;93809.19;5051159;28;20212;-82
2020/12/11 03:21:16;;;;;;;78.80;22.73;;;4.50;84.20;;;3.55;68.48;93803.34;5051172;28;20188;-81
2020/12/11 03:23:42;;;;;;;101.25;23.85;;;4.40;84.10;;;3.53;68.34;93808.72;5051149;28;20279;-81
2020/12/11 03:26:09;;;;;;;87.28;24.10;;;4.40;84.10;;;3.53;68.35;93806.13;5046658;28;20294;-82
2020/12/11 03:28:36;;;;;;;68.40;22.70;;;4.40;84.10;;;3.54;68.49;93804.38;5047595;28;20188;-81
2020/12/11 03:31:03;;;;;;;82.22;22.67;;;4.40;84.10;;;3.51;68.53;93800.31;5030650;28;20777;-82
2020/12/11 03:33:30;;;;;;;92.00;22.63;;;4.40;84.20;;;3.56;68.29;93802.38;5031048;28;20185;-80
2020/12/11 03:35:57;;;;;;;112.20;23.48;;;4.40;84.30;;;3.53;68.74;93800.94;5031318;28;20228;-81
2020/12/11 03:38:24;;;;;;;80.43;21.50;;;4.40;84.30;;;3.54;68.45;93801.78;5023276;28;20200;-81
2020/12/11 03:40:50;;;;;;;94.20;24.05;;;4.40;84.20;;;3.55;68.48;93800.75;5017257;28;20553;-80
2020/12/11 03:43:17;;;;;;;107.78;23.65;;;4.40;84.20;;;3.48;68.22;93795.50;5016677;28;20204;-81
2020/12/11 03:45:44;;;;;;;98.53;23.15;;;4.40;84.20;;;3.48;68.07;93798.09;5017360;28;20230;-82
2020/12/11 03:48:12;;;;;;;98.72;22.98;;;4.40;84.20;;;3.51;68.40;93802.09;5016502;28;20204;-80
2020/12/11 03:50:39;;;;;;;98.88;23.67;;;4.40;84.90;;;3.45;68.08;93798.41;5014770;28;20207;-81
2020/12/11 03:53:06;;;;;;;97.35;24.75;;;4.40;84.10;;;3.45;68.51;93795.03;5033676;28;20200;-81
2020/12/11 03:55:33;;;;;;;107.80;25.58;;;4.40;84.10;;;3.42;68.38;93792.78;5033199;28;20216;-80
2020/12/11 03:58:01;;;;;;;116.35;24.73;;;4.40;84.00;;;3.44;68.36;93789.06;5032731;28;20664;-82
2020/12/11 04:00:27;;;;;;;102.68;24.40;;;4.40;84.00;;;3.44;68.04;93789.06;5021721;28;20292;-81
2020/12/11 04:02:54;;;;;;;114.03;23.25;;;4.30;83.90;;;3.35;68.50;93774.53;5031127;28;20228;-81
2020/12/11 04:05:21;;;;;;;108.05;23.45;;;4.30;84.00;;;3.43;68.32;93781.44;5030893;28;20304;-81
2020/12/11 04:07:48;;;;;;;99.25;23.30;;;4.30;84.00;;;3.44;68.64;93785.66;5030655;28;20208;-82
2020/12/11 04:10:14;;;;;;;95.35;23.50;;;4.30;84.10;;;3.44;68.17;93789.06;5030865;28;20239;-81
2020/12/11 04:12:42;;;;;;;101.22;23.95;;;4.30;84.10;;;3.41;68.39;93783.41;5050423;28;20667;-82
2020/12/11 04:15:08;;;;;;;92.13;24.17;;;4.30;84.00;;;3.43;68.17;93784.03;5034187;28;20212;-82
2020/12/11 04:17:35;;;;;;;106.90;23.70;;;4.30;84.10;;;3.36;68.46;93776.16;5034221;28;20218;-82
2020/12/11 04:20:02;;;;;;;104.00;24.00;;;4.30;84.10;;;3.38;68.07;93776.78;5017773;28;20654;-82
2020/12/11 04:22:29;;;;;;;77.10;22.45;;;4.30;84.00;;;3.40;68.41;93779.22;5051040;28;20300;-82
2020/12/11 04:24:56;;;;;;;101.55;22.75;;;4.30;84.00;;;3.38;68.49;93776.78;5033951;28;20269;-82
2020/12/11 04:27:23;;;;;;;109.63;22.80;;;4.30;84.20;;;3.42;68.35;93785.81;5050672;28;20196;-82
2020/12/11 04:29:50;;;;;;;102.60;21.73;;;4.30;84.20;;;3.41;68.42;93784.22;5032839;28;20220;-82
2020/12/11 04:32:17;;;;;;;99.10;24.08;;;4.30;84.20;;;3.42;68.26;93791.00;5050421;28;20234;-83
2020/12/11 04:34:43;;;;;;;98.65;23.10;;;4.30;84.10;;;3.42;68.08;93791.00;5034400;28;20226;-82
2020/12/11 04:37:15;;;;;;;100.40;23.02;;;4.30;84.10;;;3.41;68.25;93779.03;5067075;28;20541;-83
2020/12/11 04:39:43;;;;;;;89.13;23.58;;;4.30;84.10;;;3.39;68.51;93777.59;5034558;28;20220;-82
2020/12/11 04:42:12;;;;;;;144.90;40.25;;;4.30;84.10;;;3.38;68.40;93773.38;5034127;28;20224;-82
2020/12/11 04:44:39;;;;;;;141.45;41.97;;;4.30;84.10;;;3.39;68.13;93773.19;5034234;28;20248;-82
2020/12/11 04:47:07;;;;;;;102.97;32.67;;;4.30;84.10;;;3.36;68.37;93774.38;5033804;28;20249;-81
2020/12/11 04:49:35;;;;;;;113.85;28.08;;;4.30;84.10;;;3.38;68.38;93766.41;5034293;28;20224;-82
2020/12/11 04:52:06;;;;;;;86.40;24.48;;;4.30;84.10;;;3.38;68.29;93769.00;5054429;28;20266;-82
2020/12/11 04:54:37;;;;;;;100.22;26.30;;;4.30;84.20;;;3.36;68.27;93776.94;5037543;28;20301;-82
2020/12/11 04:57:09;;;;;;;110.10;26.27;;;4.30;84.20;;;3.38;68.39;93776.78;5050327;28;20250;-82
2020/12/11 04:59:36;;;;;;;85.80;23.42;;;4.30;84.20;;;3.37;68.17;93782.97;5017589;28;20229;-81
2020/12/11 05:02:11;;;;;;;81.78;22.45;;;4.30;84.20;;;3.39;68.52;93783.56;5033823;28;20219;-82
2020/12/11 05:04:40;;;;;;;90.13;25.05;;;4.30;84.20;;;3.38;68.54;93779.38;5032997;28;20547;-82
2020/12/11 05:07:06;;;;;;;118.13;26.58;;;4.30;84.20;;;3.36;68.51;93784.72;5049337;28;20276;-82
2020/12/11 05:09:34;;;;;;;90.50;25.73;;;4.30;84.20;;;3.40;68.35;93786.97;5049241;28;20217;-82
2020/12/11 05:12:15;;;;;;;88.70;26.40;;;4.30;84.20;;;3.39;68.62;93777.59;5023432;28;20306;-82
2020/12/11 05:14:42;;;;;;;94.47;26.85;;;4.30;85.00;;;3.37;68.41;93777.78;5037618;28;20224;-82
2020/12/11 05:17:09;;;;;;;78.28;24.95;;;4.30;84.20;;;3.40;68.36;93789.56;5019990;28;20192;-81
2020/12/11 05:19:57;;;;;;;74.88;24.20;;;4.30;84.20;;;3.38;68.34;93788.94;5019565;28;20266;-82
2020/12/11 05:22:30;;;;;;;70.75;24.23;;;4.30;84.20;;;3.39;68.26;93793.16;5034815;28;20192;-81
2020/12/11 05:24:58;;;;;;;69.90;23.15;;;4.30;84.20;;;3.37;68.54;93788.16;5035140;28;20227;-82
2020/12/11 05:27:43;;;;;;;68.18;21.88;;;4.30;84.20;;;3.39;68.43;93790.56;5033877;28;20205;-82
2020/12/11 05:30:10;;;;;;;37.63;18.45;;;4.20;84.20;;;3.40;68.59;93779.22;5051966;28;20231;-81
2020/12/11 05:32:44;;;;;;;35.47;18.38;;;4.30;84.30;;;3.40;68.64;93780.00;5035245;28;20322;-83
2020/12/11 05:35:20;;;;;;;30.63;16.63;;;4.30;84.30;;;3.42;68.50;93772.88;5036853;28;20224;-81
2020/12/11 05:38:06;;;;;;;28.05;15.15;;;4.30;84.30;;;3.42;68.31;93774.63;5036713;28;20231;-81
2020/12/11 05:40:41;;;;;;;28.58;15.80;;;4.30;84.30;;;3.40;68.52;93777.41;5032678;28;20216;-81
2020/12/11 05:43:15;;;;;;;28.88;16.48;;;4.30;84.20;;;3.41;68.41;93773.84;5032654;28;20662;-82
2020/12/11 05:45:53;;;;;;;31.10;16.20;;;4.30;84.20;;;3.40;68.11;93774.81;5033233;28;20208;-81
2020/12/11 05:48:37;;;;;;;36.00;19.27;;;4.30;84.20;;;3.38;68.24;93768.19;5049703;28;20212;-82
2020/12/11 05:51:13;;;;;;;32.65;17.52;;;4.30;84.10;;;3.39;68.74;93780.19;5016650;28;20193;-81
2020/12/11 05:53:40;;;;;;;24.13;14.68;;;4.30;84.10;;;3.32;68.57;93777.47;5016821;28;20262;-82
2020/12/11 05:56:07;;;;;;;24.25;13.45;;;4.30;84.00;;;3.37;68.72;93777.78;5041108;28;20551;-82
2020/12/11 05:58:34;;;;;;;23.80;14.20;;;4.30;84.10;;;3.37;68.62;93772.59;5052870;28;20192;-81
2020/12/11 06:01:01;;;;;;;21.88;12.73;;;4.30;84.00;;;3.37;68.67;93775.19;5035906;28;20192;-82
2020/12/11 06:03:29;;;;;;;20.88;12.45;;;4.30;84.00;;;3.36;68.49;93771.78;5035450;28;20188;-82
2020/12/11 06:05:58;;;;;;;22.48;13.30;;;4.20;83.90;;;3.34;68.33;93767.75;5035559;28;20200;-82
2020/12/11 06:08:26;;;;;;;20.50;12.55;;;4.30;84.00;;;3.33;68.57;93774.72;5036282;28;20192;-81
2020/12/11 06:10:54;;;;;;;21.48;11.50;;;4.30;84.00;;;3.31;68.48;93770.72;5036311;28;20200;-82
2020/12/11 06:13:38;;;;;;;21.60;12.38;;;4.20;83.90;;;3.31;68.17;93761.13;5036467;28;20242;-82
2020/12/11 06:16:09;;;;;;;22.10;12.35;;;4.20;83.90;;;3.32;68.43;93764.50;5036137;28;20566;-82
2020/12/11 06:18:38;;;;;;;23.83;13.75;;;4.20;83.90;;;3.27;68.55;93756.47;5036015;28;20200;-83
2020/12/11 06:21:06;;;;;;;23.73;13.57;;;4.20;84.00;;;3.31;68.50;93758.53;5036004;28;20212;-82
2020/12/11 06:23:32;;;;;;;23.00;12.50;;;4.20;83.90;;;3.29;68.04;93765.69;5035904;28;20192;-82
2020/12/11 06:26:01;;;;;;;20.08;11.50;;;4.20;83.90;;;3.28;68.37;93769.25;5035185;28;20200;-82
2020/12/11 06:28:53;;;;;;;28.58;14.70;;;4.20;83.90;;;3.25;68.48;93774.78;5041308;28;20203;-82
2020/12/11 06:31:24;;;;;;;21.50;12.25;;;4.20;83.90;;;3.22;68.75;93769.16;5052613;28;20211;-83
2020/12/11 06:33:54;;;;;;;25.30;11.98;;;4.20;83.90;;;3.22;68.50;93764.75;5019621;28;20587;-82
2020/12/11 06:36:22;;;;;;;31.95;11.93;;;4.20;83.90;;;3.27;68.52;93772.84;5035976;28;20683;-82
2020/12/11 06:38:57;;;;;;;26.98;13.20;;;4.20;84.00;;;3.25;68.97;93774.78;5035585;28;20216;-83
2020/12/11 06:41:27;;;;;;;23.67;12.32;;;4.20;84.00;;;3.23;68.32;93774.16;5035340;28;20187;-82
2020/12/11 06:44:16;;;;;;;25.77;11.57;;;4.20;84.00;;;3.23;68.37;93763.00;5051923;28;20254;-82
2020/12/11 06:46:43;;;;;;;31.55;12.98;;;4.20;83.90;;;3.19;68.57;93760.75;5019503;28;20188;-83
2020/12/11 06:49:19;;;;;;;29.02;13.93;;;4.20;83.90;;;3.20;68.56;93756.38;5035674;28;20215;-82
2020/12/11 06:51:47;;;;;;;30.08;13.35;;;4.20;83.90;;;3.19;68.56;93752.97;5019422;28;20219;-80
2020/12/11 06:54:20;;;;;;;27.42;12.48;;;4.20;83.90;;;3.19;68.70;93749.59;5035449;28;20212;-82
2020/12/11 06:57:01;;;;;;;29.63;12.63;;;4.10;83.90;;;3.14;68.51;93744.91;5051594;28;20212;-82
2020/12/11 06:59:36;;;;;;;32.67;12.57;;;4.10;83.90;;;3.14;68.31;93755.28;5052094;28;20228;-82
2020/12/11 07:02:03;;;;;;;31.63;11.57;;;4.10;83.90;;;3.11;68.51;93753.03;5053327;28;20184;-82
2020/12/11 07:04:50;;;;;;;22.92;10.38;;;4.10;83.90;;;3.11;68.62;93753.03;5051494;28;20214;-82
2020/12/11 07:07:22;;;;;;;20.70;10.45;;;4.20;84.10;;;3.11;68.49;93750.44;5049886;28;20189;-83
2020/12/11 07:09:51;;;;;;;31.35;10.43;;;4.10;83.90;;;3.10;68.96;93745.44;5034244;28;20231;-82
2020/12/11 07:12:18;;;;;;;34.75;10.85;;;4.10;84.00;;;3.10;68.61;93756.63;5033698;28;20721;-82
2020/12/11 07:14:46;;;;;;;37.22;11.63;;;4.10;84.00;;;3.07;68.89;93754.38;5051023;28;20216;-82
2020/12/11 07:17:27;;;;;;;40.03;14.15;;;4.10;83.90;;;3.04;68.60;93752.13;5035035;28;20273;-83
2020/12/11 07:19:56;;;;;;;30.33;11.30;;;4.10;84.00;;;3.04;68.59;93747.75;5034431;28;20310;-81
2020/12/11 07:22:23;;;;;;;47.42;10.68;;;4.00;83.90;;;3.04;68.70;93739.19;5032334;28;20620;-80
2020/12/11 07:24:49;;;;;;;24.02;9.30;;;4.00;83.90;;;3.04;68.65;93746.97;5034131;28;20618;-82
2020/12/11 07:27:17;;;;;;;25.20;9.05;;;4.10;83.90;;;3.06;68.48;93739.00;5049189;28;20199;-82
2020/12/11 07:29:50;;;;;;;25.08;9.02;;;4.00;84.00;;;3.04;68.72;93742.56;5032843;28;20235;-83
2020/12/11 07:32:22;;;;;;;25.02;8.80;;;4.10;84.90;;;3.04;68.59;93752.94;5051145;28;20687;-82
2020/12/11 07:34:49;;;;;;;22.88;9.25;;;4.00;84.10;;;3.03;68.81;93742.75;5045301;28;20223;-81
2020/12/11 07:37:17;;;;;;;16.83;8.00;;;4.00;84.90;;;3.06;68.77;93744.97;5063386;28;20349;-81
2020/12/11 07:39:44;;;;;;;16.75;8.32;;;4.00;84.10;;;3.07;68.71;93735.44;5065481;28;20259;-82
2020/12/11 07:42:11;;;;;;;14.00;6.95;;;4.00;84.10;;;3.06;69.05;93731.22;5063698;28;20227;-82
2020/12/11 07:44:39;;;;;;;11.93;7.45;;;4.00;84.10;;;3.09;69.16;93739.47;5049986;28;20224;-82
2020/12/11 07:47:11;;;;;;;17.90;8.50;;;4.00;84.20;;;3.11;69.09;93740.06;5028232;28;20729;-81
2020/12/11 07:49:45;;;;;;;13.48;8.23;;;4.00;84.20;;;3.14;68.63;93747.50;5045655;28;20744;-80
2020/12/11 07:52:21;;;;;;;15.30;8.25;;;4.00;84.20;;;3.16;68.83;93740.38;5033870;28;20208;-81
2020/12/11 07:54:49;;;;;;;11.80;7.90;;;4.00;84.20;;;3.17;68.71;93743.75;5047576;28;20223;-82
2020/12/11 07:57:24;;;;;;;15.02;8.70;;;4.00;84.20;;;3.18;68.81;93735.81;5069050;28;20199;-81
2020/12/11 08:00:06;;;;;;;14.65;8.10;;;4.10;84.30;;;3.19;68.71;93736.63;5069242;28;20723;-81
2020/12/11 08:02:34;;;;;;;12.27;7.97;;;4.20;84.40;;;3.23;68.83;93737.09;5052562;28;20221;-82
2020/12/11 08:05:10;;;;;;;14.52;8.48;;;4.10;84.30;;;3.24;68.82;93728.34;5053754;28;20660;-81
2020/12/11 08:07:37;;;;;;;14.82;8.65;;;4.10;84.30;;;3.27;68.76;93728.78;5049806;28;20192;-82
2020/12/11 08:10:13;;;;;;;15.20;8.75;;;4.10;84.30;;;3.28;68.87;93729.59;5066189;28;20702;-81
2020/12/11 08:12:40;;;;;;;16.38;8.80;;;4.20;84.30;;;3.29;68.75;93728.59;5033228;28;20202;-82
2020/12/11 08:15:08;;;;;;;13.25;8.02;;;4.20;84.40;;;3.30;68.92;93725.03;5067086;28;20255;-82
2020/12/11 08:17:37;;;;;;;19.08;10.70;;;4.20;84.40;;;3.31;68.63;93726.66;5049803;28;20219;-82
2020/12/11 08:20:06;;;;;;;16.35;9.57;;;4.20;84.40;;;3.33;69.17;93722.91;5049159;28;20215;-81
2020/12/11 08:22:39;;;;;;;15.07;8.38;;;4.20;84.40;;;3.36;68.84;93716.56;5050469;28;20234;-82
2020/12/11 08:25:22;;;;;;;13.23;7.57;;;4.20;84.40;;;3.39;68.94;93717.97;5066300;28;20299;-80
2020/12/11 08:27:50;;;;;;;13.02;8.02;;;4.30;84.40;;;3.39;68.56;93703.22;5035492;28;20207;-80
2020/12/11 08:30:18;;;;;;;13.75;8.50;;;4.30;84.40;;;3.43;68.67;93706.25;5069721;28;20256;-81
2020/12/11 08:32:47;;;;;;;13.85;7.93;;;4.30;84.40;;;3.44;68.82;93711.28;5036259;28;20222;-80
2020/12/11 08:35:23;;;;;;;14.07;8.88;;;4.30;84.40;;;3.46;68.71;93704.13;5051426;28;20220;-81
2020/12/11 08:38:04;;;;;;;12.52;8.23;;;4.30;84.40;;;3.44;68.43;93690.56;5036467;28;20199;-81
2020/12/11 08:40:31;;;;;;;17.15;9.10;;;4.30;84.40;;;3.50;68.66;93699.38;5049078;28;20221;-81
2020/12/11 08:45:42;;;;;;;14.75;8.48;;;4.40;84.60;;;3.52;68.68;93693.03;5068206;28;20228;-80
2020/12/11 08:50:43;;;;;;;15.10;8.27;;;4.40;84.50;;;3.57;68.77;93678.75;5036644;28;20594;-81
2020/12/11 08:53:12;;;;;;;12.45;8.10;;;4.40;84.50;;;3.63;68.76;93685.81;5056450;28;20223;-80
2020/12/11 08:55:39;;;;;;;27.33;9.65;;;4.40;84.50;;;3.63;69.12;93680.63;5054358;28;20661;-81
2020/12/11 08:58:07;;;;;;;20.58;10.43;;;4.50;84.60;;;3.61;68.73;93675.59;5051916;28;20196;-80
2020/12/11 09:00:37;;;;;;;25.23;10.63;;;4.50;84.40;;;3.61;68.70;93667.81;5035382;28;20209;-81
2020/12/11 09:03:03;;;;;;;20.40;10.10;;;4.50;84.40;;;3.55;68.57;93658.19;5031166;28;20287;-82
2020/12/11 09:05:30;;;;;;;15.73;9.90;;;4.50;84.30;;;3.60;68.47;93653.28;5015442;28;20213;-81
2020/12/11 09:07:57;;;;;;;22.25;11.27;;;4.50;84.40;;;3.60;68.71;93649.88;5016585;28;20300;-81
2020/12/11 09:10:24;;;;;;;18.80;10.55;;;4.50;84.30;;;3.60;68.71;93642.91;5034064;28;20212;-81
2020/12/11 09:12:53;;;;;;;16.20;9.40;;;4.50;84.30;;;3.62;68.75;93642.72;5051627;28;20204;-81
2020/12/11 09:15:21;;;;;;;16.73;9.45;;;4.50;84.40;;;3.63;68.99;93642.53;5037228;28;20251;-81
2020/12/11 09:17:49;;;;;;;17.40;10.68;;;4.50;84.40;;;3.64;68.67;93646.75;5037215;28;20211;-81
2020/12/11 09:20:17;;;;;;;17.15;10.77;;;4.50;84.40;;;3.64;68.63;93646.75;5037251;28;20219;-82
2020/12/11 09:22:44;;;;;;;18.70;11.23;;;4.50;84.40;;;3.66;69.10;93642.19;5037165;28;20246;-81
2020/12/11 09:25:10;;;;;;;16.52;10.45;;;4.50;84.40;;;3.69;68.96;93643.59;5049062;28;20274;-81
2020/12/11 09:27:40;;;;;;;15.07;9.70;;;4.50;84.40;;;3.71;68.79;93643.41;5043317;28;20271;-82
2020/12/11 09:32:55;;;;;;;18.33;10.75;;;4.60;84.40;;;3.72;68.70;93648.41;5037071;28;20433;-81
2020/12/11 09:35:25;;;;;;;15.80;9.57;;;4.60;84.50;;;3.74;68.58;93645.66;5050411;28;20230;-81
2020/12/11 09:37:56;;;;;;;16.15;9.65;;;4.60;84.50;;;3.75;69.05;93642.06;5050947;28;20192;-80
2020/12/11 09:40:42;;;;;;;16.85;9.93;;;4.60;84.50;;;3.76;68.52;93639.31;5050578;28;20748;-80
2020/12/11 09:46:05;;;;;;;18.70;10.77;;;4.60;84.40;;;3.76;68.96;93625.53;5054079;28;20196;-79
2020/12/11 09:48:40;;;;;;;17.77;10.45;;;4.60;84.40;;;3.75;68.55;93616.13;5038158;28;20467;-80
2020/12/11 09:51:21;;;;;;;19.70;10.38;;;4.60;84.40;;;3.71;68.71;93602.75;5036232;28;20222;-81
2020/12/11 09:54:10;;;;;;;15.07;9.38;;;4.60;84.40;;;3.80;68.70;93613.81;5051444;28;20218;-80
2020/12/11 09:56:38;;;;;;;16.77;9.50;;;4.60;85.20;;;3.77;68.66;93601.19;5050796;28;20195;-81
2020/12/11 09:59:13;;;;;;;15.75;9.65;;;4.70;84.40;;;3.76;68.83;93599.59;5050903;28;20773;-81
2020/12/11 10:02:10;;;;;;;14.82;9.38;;;4.70;84.40;;;3.77;68.58;93596.00;5035591;28;20291;-80
2020/12/11 10:04:38;;;;;;;15.60;9.23;;;4.60;84.30;;;3.76;68.88;93590.03;5051944;28;20216;-80
2020/12/11 10:07:04;;;;;;;17.13;9.68;;;4.70;84.40;;;3.77;68.83;93586.47;5067143;28;20254;-79
2020/12/11 10:09:32;;;;;;;14.60;8.88;;;4.70;84.40;;;3.79;68.85;93568.91;5050213;28;20702;-79
2020/12/11 10:12:02;;;;;;;17.38;10.07;;;4.70;84.50;;;3.76;68.73;93579.66;5033379;28;20593;-81
2020/12/11 10:14:34;;;;;;;17.15;9.95;;;4.70;84.40;;;3.77;68.80;93572.66;5035296;28;20208;-81
2020/12/11 10:17:00;;;;;;;16.08;9.85;;;4.70;84.40;;;3.76;68.92;93569.28;5047828;28;20250;-80
2020/12/11 10:19:28;;;;;;;17.58;10.77;;;4.70;84.40;;;3.75;68.72;93562.50;5032036;28;20295;-81
2020/12/11 10:21:55;;;;;;;17.55;10.35;;;4.70;84.40;;;3.77;68.81;93560.53;5035159;28;20257;-80
2020/12/11 10:24:24;;;;;;;16.85;10.07;;;4.70;84.40;;;3.78;68.50;93553.53;5034031;28;20277;-81
2020/12/11 10:26:51;;;;;;;21.23;11.35;;;4.70;84.30;;;3.78;68.68;93546.53;5033830;28;20666;-81
2020/12/11 10:29:18;;;;;;;20.85;12.00;;;4.70;84.40;;;3.78;68.83;93546.53;5016409;28;20226;-81
2020/12/11 10:31:45;;;;;;;22.42;11.15;;;4.70;84.40;;;3.77;68.93;93544.97;5050440;28;20211;-81
2020/12/11 10:34:15;;;;;;;21.80;11.90;;;4.70;84.40;;;3.81;68.81;93545.41;5032842;28;20218;-81
2020/12/11 10:36:43;;;;;;;21.85;11.60;;;4.70;84.50;;;3.81;68.98;93541.00;5033482;28;20188;-81
2020/12/11 10:39:11;;;;;;;28.85;12.38;;;4.70;84.50;;;3.83;68.85;93530.44;5033587;28;20224;-81
2020/12/11 10:41:40;;;;;;;28.88;12.00;;;4.70;84.50;;;3.81;68.89;93528.03;5035639;28;20246;-81